createdAt,value
2022-10-13T00:02:22.498Z,12.52
2022-10-13T00:05:09.764Z,13.20
2022-10-13T00:07:56.564Z,12.77
2022-10-13T00:10:43.763Z,12.65
2022-10-13T00:13:30.824Z,12.95
2022-10-13T00:16:19.249Z,13.32
2022-10-13T00:19:11.704Z,13.02
2022-10-13T00:22:01.066Z,12.23
2022-10-13T00:24:51.575Z,12.25
2022-10-13T00:27:38.634Z,12.38
2022-10-13T00:30:25.930Z,13.93
2022-10-13T00:33:14.349Z,13.98
2022-10-13T00:36:04.891Z,13.38
2022-10-13T00:38:54.060Z,12.48
2022-10-13T00:41:43.483Z,12.80
2022-10-13T00:44:51.190Z,13.00
2022-10-13T00:47:41.792Z,12.50
2022-10-13T00:50:33.507Z,12.30
2022-10-13T00:53:25.144Z,12.73
2022-10-13T00:56:15.904Z,13.93
2022-10-13T00:59:04.687Z,13.85
2022-10-13T01:01:52.277Z,12.90
2022-10-13T01:04:44.024Z,12.32
2022-10-13T01:07:31.917Z,12.80
2022-10-13T01:10:30.786Z,13.25
2022-10-13T01:13:21.277Z,13.52
2022-10-13T01:16:13.303Z,14.48
2022-10-13T01:19:10.111Z,13.00
2022-10-13T01:22:04.779Z,13.88
2022-10-13T01:24:58.161Z,12.75
2022-10-13T01:27:55.845Z,13.07
2022-10-13T01:30:48.299Z,13.15
2022-10-13T01:33:40.186Z,13.07
2022-10-13T01:36:31.878Z,12.73
2022-10-13T01:39:23.247Z,12.77
2022-10-13T01:42:14.041Z,13.68
2022-10-13T01:45:02.795Z,13.50
2022-10-13T01:47:52.086Z,13.48
2022-10-13T01:50:39.739Z,12.75
2022-10-13T01:53:27.249Z,12.20
2022-10-13T01:56:14.614Z,13.05
2022-10-13T01:59:03.379Z,12.35
2022-10-13T02:01:55.883Z,13.00
2022-10-13T02:04:50.507Z,12.73
2022-10-13T02:07:39.132Z,13.25
2022-10-13T02:10:28.434Z,13.85
2022-10-13T02:13:17.448Z,14.93
2022-10-13T02:16:04.396Z,13.82
2022-10-13T02:18:51.874Z,12.93
2022-10-13T02:21:41.313Z,14.57
2022-10-13T02:24:28.390Z,13.95
2022-10-13T02:27:15.158Z,13.18
2022-10-13T02:30:02.083Z,12.93
2022-10-13T02:32:48.890Z,13.85
2022-10-13T02:35:35.782Z,13.52
2022-10-13T02:38:24.180Z,12.15
2022-10-13T02:41:10.993Z,13.38
2022-10-13T02:43:57.920Z,13.10
2022-10-13T02:46:44.925Z,12.25
2022-10-13T02:49:32.114Z,12.18
2022-10-13T02:52:19.001Z,13.50
2022-10-13T02:55:08.203Z,13.05
2022-10-13T02:57:55.230Z,13.30
2022-10-13T03:00:42.163Z,13.55
2022-10-13T03:03:29.408Z,13.48
2022-10-13T03:06:16.414Z,12.05
2022-10-13T03:09:03.398Z,12.88
2022-10-13T03:11:51.555Z,14.98
2022-10-13T03:14:38.427Z,13.15
2022-10-13T03:17:25.851Z,12.18
2022-10-13T03:20:12.666Z,13.35
2022-10-13T03:22:59.515Z,13.40
2022-10-13T03:25:46.622Z,13.60
2022-10-13T03:28:35.245Z,12.45
2022-10-13T03:31:22.107Z,13.75
2022-10-13T03:34:09.168Z,12.88
2022-10-13T03:36:56.354Z,13.82
2022-10-13T03:39:43.069Z,12.65
2022-10-13T03:42:30.130Z,13.23
2022-10-13T03:45:18.738Z,12.35
2022-10-13T03:48:05.690Z,11.93
2022-10-13T03:50:52.609Z,13.38
2022-10-13T03:53:39.538Z,12.27
2022-10-13T03:56:28.285Z,13.60
2022-10-13T03:59:16.812Z,13.48
2022-10-13T04:02:05.038Z,13.15
2022-10-13T04:04:52.221Z,12.80
2022-10-13T04:07:39.237Z,12.38
2022-10-13T04:10:26.159Z,14.18
2022-10-13T04:13:12.974Z,12.52
2022-10-13T04:16:03.098Z,12.38
2022-10-13T04:18:53.746Z,12.80
2022-10-13T04:21:40.643Z,13.07
2022-10-13T04:24:27.458Z,13.65
2022-10-13T04:27:16.682Z,13.38
2022-10-13T04:30:03.978Z,14.90
2022-10-13T04:32:50.974Z,13.63
2022-10-13T04:35:42.266Z,14.60
2022-10-13T04:38:29.677Z,12.65
2022-10-13T04:41:17.937Z,12.68
2022-10-13T04:44:05.290Z,14.07
2022-10-13T04:46:52.274Z,14.02
2022-10-13T04:49:39.142Z,13.93
2022-10-13T04:52:27.404Z,13.57
2022-10-13T04:55:14.502Z,13.73
2022-10-13T04:58:01.442Z,14.27
2022-10-13T05:00:48.616Z,13.50
2022-10-13T05:03:35.987Z,12.05
2022-10-13T05:06:23.485Z,13.48
2022-10-13T05:09:15.785Z,13.05
2022-10-13T05:12:03.116Z,13.90
2022-10-13T05:14:50.024Z,12.95
2022-10-13T05:17:36.874Z,13.38
2022-10-13T05:20:23.994Z,14.38
2022-10-13T05:23:11.122Z,12.75
2022-10-13T05:26:01.733Z,14.07
2022-10-13T05:28:48.594Z,13.30
2022-10-13T05:31:36.180Z,12.25
2022-10-13T05:34:23.346Z,13.18
2022-10-13T05:37:10.143Z,12.98
2022-10-13T05:39:57.028Z,12.70
2022-10-13T05:42:45.292Z,12.18
2022-10-13T05:45:33.681Z,12.80
2022-10-13T05:48:20.325Z,13.38
2022-10-13T05:51:08.522Z,13.98
2022-10-13T05:53:59.498Z,13.10
2022-10-13T05:56:48.078Z,13.35
2022-10-13T05:59:38.226Z,11.73
2022-10-13T06:02:27.931Z,13.43
2022-10-13T06:05:17.480Z,11.77
2022-10-13T06:08:04.757Z,12.20
2022-10-13T06:10:51.907Z,12.55
2022-10-13T06:13:38.666Z,13.07
2022-10-13T06:16:26.867Z,12.90
2022-10-13T06:19:13.802Z,12.15
2022-10-13T06:22:03.666Z,12.48
2022-10-13T06:24:50.872Z,12.27
2022-10-13T06:27:37.598Z,12.50
2022-10-13T06:30:24.997Z,13.48
2022-10-13T06:33:13.380Z,13.27
2022-10-13T06:36:02.054Z,11.23
2022-10-13T06:38:49.297Z,11.73
2022-10-13T06:41:36.257Z,11.52
2022-10-13T06:44:23.089Z,11.68
2022-10-13T06:47:10.137Z,11.05
2022-10-13T06:49:58.670Z,11.57
2022-10-13T06:52:45.549Z,9.98
2022-10-13T06:55:32.630Z,10.70
2022-10-13T06:58:19.706Z,11.18
2022-10-13T07:01:07.109Z,11.80
2022-10-13T07:03:54.576Z,10.52
2022-10-13T07:06:43.044Z,10.70
2022-10-13T07:09:30.031Z,10.80
2022-10-13T07:12:17.968Z,11.10
2022-10-13T07:15:05.862Z,9.95
2022-10-13T07:17:53.968Z,11.50
2022-10-13T07:20:41.102Z,11.10
2022-10-13T07:23:29.852Z,10.85
2022-10-13T07:26:17.277Z,11.40
2022-10-13T07:29:04.073Z,11.45
2022-10-13T07:31:51.038Z,11.80
2022-10-13T07:34:37.955Z,10.63
2022-10-13T07:37:24.883Z,12.05
2022-10-13T07:40:13.563Z,10.77
2022-10-13T07:43:00.781Z,10.88
2022-10-13T07:45:47.867Z,10.98
2022-10-13T07:48:35.057Z,9.95
2022-10-13T07:51:22.561Z,10.80
2022-10-13T07:54:09.507Z,11.13
2022-10-13T07:56:57.631Z,10.50
2022-10-13T07:59:44.424Z,10.32
2022-10-13T08:02:31.308Z,10.45
2022-10-13T08:05:18.174Z,10.95
2022-10-13T08:08:05.184Z,10.63
2022-10-13T08:10:52.109Z,12.10
2022-10-13T08:13:40.231Z,9.85
2022-10-13T08:16:27.135Z,9.75
2022-10-13T08:19:14.009Z,11.18
2022-10-13T08:22:00.889Z,10.45
2022-10-13T08:24:47.690Z,11.63
2022-10-13T08:27:50.210Z,11.50
2022-10-13T08:30:39.786Z,10.83
2022-10-13T08:33:27.526Z,12.10
2022-10-13T08:36:14.659Z,10.27
2022-10-13T08:39:01.855Z,11.38
2022-10-13T08:41:49.250Z,11.82
2022-10-13T08:47:47.069Z,10.52
2022-10-13T08:50:35.800Z,11.10
2022-10-13T08:53:26.926Z,11.27
2022-10-13T08:56:16.771Z,10.32
2022-10-13T08:59:04.714Z,11.95
2022-10-13T09:01:53.966Z,11.05
2022-10-13T09:04:43.503Z,9.95
2022-10-13T09:07:32.489Z,10.43
2022-10-13T09:10:19.398Z,10.48
2022-10-13T09:13:06.271Z,10.30
2022-10-13T09:15:53.004Z,9.77
2022-10-13T09:18:39.863Z,10.40
2022-10-13T09:21:30.025Z,10.35
2022-10-13T09:24:17.874Z,10.80
2022-10-13T09:27:06.470Z,11.85
2022-10-13T09:29:53.934Z,11.55
2022-10-13T09:32:41.230Z,10.63
2022-10-13T09:35:28.042Z,11.50
2022-10-13T09:38:17.037Z,11.07
2022-10-13T09:41:05.880Z,9.95
2022-10-13T09:44:00.535Z,9.65
2022-10-13T09:46:49.623Z,10.05
2022-10-13T09:49:38.504Z,10.82
2022-10-13T09:52:26.099Z,10.05
2022-10-13T09:58:11.750Z,11.07
2022-10-13T10:00:58.922Z,10.20
2022-10-13T10:03:46.458Z,9.98
2022-10-13T10:06:35.050Z,8.95
2022-10-13T10:09:33.052Z,9.93
2022-10-13T10:12:24.213Z,9.43
2022-10-13T10:15:22.131Z,9.70
2022-10-13T10:18:14.958Z,8.57
2022-10-13T10:21:06.392Z,8.55
2022-10-13T10:23:55.828Z,9.07
2022-10-13T10:26:47.402Z,9.20
2022-10-13T10:29:41.517Z,9.05
2022-10-13T10:35:18.988Z,9.85
2022-10-13T10:38:13.390Z,8.32
2022-10-13T10:41:05.088Z,9.90
2022-10-13T10:43:53.756Z,8.63
2022-10-13T10:46:43.420Z,9.38
2022-10-13T10:49:31.982Z,9.65
2022-10-13T10:52:23.253Z,8.70
2022-10-13T10:55:15.124Z,8.35
2022-10-13T10:58:07.027Z,8.32
2022-10-13T11:00:56.359Z,9.23
2022-10-13T11:03:47.394Z,9.23
2022-10-13T11:06:35.485Z,9.35
2022-10-13T11:09:37.347Z,8.88
2022-10-13T11:12:25.971Z,8.75
2022-10-13T11:15:14.113Z,8.48
2022-10-13T11:18:00.881Z,10.05
2022-10-13T11:20:59.266Z,9.25
2022-10-13T11:23:46.836Z,9.10
2022-10-13T11:26:42.216Z,9.40
2022-10-13T11:29:54.679Z,9.75
2022-10-13T11:32:56.305Z,10.65
2022-10-13T11:35:43.047Z,9.30
2022-10-13T11:38:35.260Z,8.98
2022-10-13T11:41:27.139Z,9.00
2022-10-13T11:44:17.213Z,8.57
2022-10-13T11:47:10.822Z,9.02
2022-10-13T11:50:08.071Z,9.83
2022-10-13T11:53:02.690Z,8.52
2022-10-13T11:55:51.371Z,9.00
2022-10-13T11:58:43.021Z,8.10
2022-10-13T12:01:30.022Z,8.23
2022-10-13T12:04:21.830Z,8.90
2022-10-13T12:07:10.106Z,9.20
2022-10-13T12:09:58.355Z,9.73
2022-10-13T12:12:47.413Z,8.18
2022-10-13T12:15:36.427Z,7.57
2022-10-13T12:18:24.653Z,8.95
2022-10-13T12:21:14.226Z,8.52
2022-10-13T12:24:07.455Z,8.02
2022-10-13T12:26:54.522Z,7.90
2022-10-13T12:29:41.633Z,9.75
2022-10-13T12:32:29.348Z,8.23
2022-10-13T12:35:18.714Z,7.95
2022-10-13T12:38:10.014Z,8.75
2022-10-13T12:40:57.035Z,9.50
2022-10-13T12:43:44.199Z,9.32
2022-10-13T12:46:37.968Z,10.48
2022-10-13T12:49:25.957Z,9.38
2022-10-13T12:52:14.551Z,10.05
2022-10-13T12:55:03.112Z,10.50
2022-10-13T12:57:51.203Z,10.60
2022-10-13T13:00:38.359Z,10.85
2022-10-13T13:03:27.366Z,9.95
2022-10-13T13:06:25.869Z,10.93
2022-10-13T13:09:20.934Z,10.52
2022-10-13T13:12:21.041Z,10.20
2022-10-13T13:15:22.186Z,10.85
2022-10-13T13:18:27.800Z,10.90
2022-10-13T13:21:16.255Z,11.43
2022-10-13T13:24:04.327Z,10.90
2022-10-13T13:27:08.215Z,11.10
2022-10-13T13:29:57.137Z,10.95
2022-10-13T13:32:44.261Z,11.35
2022-10-13T13:35:31.170Z,12.05
2022-10-13T13:38:17.973Z,11.88
2022-10-13T13:41:04.817Z,13.70
2022-10-13T13:43:54.117Z,12.43
2022-10-13T13:46:43.791Z,13.27
2022-10-13T13:49:30.883Z,13.02
2022-10-13T13:52:18.172Z,12.30
2022-10-13T13:55:05.942Z,12.75
2022-10-13T13:57:52.730Z,12.63
2022-10-13T14:00:39.651Z,11.75
2022-10-13T14:03:28.079Z,12.85
2022-10-13T14:06:18.920Z,12.45
2022-10-13T14:09:05.935Z,13.80
2022-10-13T14:11:53.042Z,11.57
2022-10-13T14:14:39.810Z,11.90
2022-10-13T14:17:26.522Z,13.77
2022-10-13T14:20:14.791Z,12.90
2022-10-13T14:23:02.153Z,13.93
2022-10-13T14:25:49.365Z,14.25
2022-10-13T14:28:36.233Z,13.13
2022-10-13T14:31:23.361Z,12.88
2022-10-13T14:34:10.591Z,12.02
2022-10-13T14:36:58.771Z,13.00
2022-10-13T14:39:45.506Z,13.15
2022-10-13T14:42:32.359Z,12.88
2022-10-13T14:45:19.129Z,12.88
2022-10-13T14:48:06.265Z,12.05
2022-10-13T14:50:53.254Z,12.10
2022-10-13T14:53:42.390Z,11.35
2022-10-13T14:56:31.529Z,12.43
2022-10-13T14:59:18.675Z,11.38
2022-10-13T15:02:05.659Z,10.93
2022-10-13T15:04:52.339Z,12.07
2022-10-13T15:07:41.171Z,11.98
2022-10-13T15:10:30.616Z,12.57
2022-10-13T15:13:17.571Z,11.75
2022-10-13T15:16:05.104Z,12.60
2022-10-13T15:18:52.098Z,12.82
2022-10-13T15:21:39.163Z,12.90
2022-10-13T15:24:26.063Z,12.65
2022-10-13T15:27:14.136Z,12.32
2022-10-13T15:30:01.107Z,13.15
2022-10-13T15:32:49.695Z,14.05
2022-10-13T15:35:36.693Z,12.77
2022-10-13T15:38:23.674Z,12.90
2022-10-13T15:41:11.559Z,13.45
2022-10-13T15:44:00.054Z,13.45
2022-10-13T15:47:06.700Z,12.60
2022-10-13T15:49:54.610Z,12.85
2022-10-13T15:52:42.045Z,12.63
2022-10-13T15:55:29.399Z,12.77
2022-10-13T15:58:16.634Z,11.90
2022-10-13T16:01:10.308Z,12.23
2022-10-13T16:03:57.264Z,12.98
2022-10-13T16:06:44.075Z,12.52
2022-10-13T16:09:31.651Z,13.32
2022-10-13T16:12:18.923Z,14.57
2022-10-13T16:15:06.203Z,12.63
2022-10-13T16:17:54.805Z,11.77
2022-10-13T16:20:45.286Z,11.90
2022-10-13T16:23:32.490Z,12.95
2022-10-13T16:26:19.381Z,11.95
2022-10-13T16:29:06.219Z,12.30
2022-10-13T16:31:53.063Z,11.52
2022-10-13T16:34:41.166Z,11.68
2022-10-13T16:37:27.965Z,10.70
2022-10-13T16:40:15.569Z,11.18
2022-10-13T16:43:02.410Z,11.52
2022-10-13T16:46:00.112Z,11.45
2022-10-13T16:48:47.943Z,11.93
2022-10-13T16:51:36.397Z,12.15
2022-10-13T16:54:23.641Z,10.73
2022-10-13T16:57:10.677Z,11.70
2022-10-13T16:59:57.395Z,11.43
2022-10-13T17:02:44.187Z,11.32
2022-10-13T17:05:31.053Z,12.18
2022-10-13T17:08:19.278Z,11.63
2022-10-13T17:11:06.824Z,12.35
2022-10-13T17:13:53.886Z,12.50
2022-10-13T17:16:40.841Z,13.05
2022-10-13T17:19:27.610Z,12.43
2022-10-13T17:22:14.333Z,12.65
2022-10-13T17:25:02.663Z,11.88
2022-10-13T17:27:49.646Z,11.30
2022-10-13T17:30:36.423Z,12.15
2022-10-13T17:33:23.207Z,13.38
2022-10-13T17:36:12.213Z,13.48
2022-10-13T17:39:03.198Z,12.88
2022-10-13T17:41:51.404Z,12.82
2022-10-13T17:44:38.287Z,13.30
2022-10-13T17:47:25.198Z,13.80
2022-10-13T17:50:12.066Z,13.23
2022-10-13T17:52:58.908Z,13.43
2022-10-13T17:55:45.847Z,13.25
2022-10-13T17:58:36.174Z,12.75
2022-10-13T18:01:23.970Z,14.07
2022-10-13T18:04:12.542Z,14.18
2022-10-13T18:06:59.778Z,13.68
2022-10-13T18:09:46.697Z,14.45
2022-10-13T18:12:33.990Z,15.45
2022-10-13T18:15:22.181Z,14.95
2022-10-13T18:18:09.116Z,14.30
2022-10-13T18:20:55.874Z,15.25
2022-10-13T18:23:43.191Z,16.50
2022-10-13T18:26:35.110Z,15.18
2022-10-13T18:29:21.852Z,16.67
2022-10-13T18:32:10.131Z,15.50
2022-10-13T18:34:57.354Z,16.35
2022-10-13T18:37:44.262Z,16.42
2022-10-13T18:40:31.414Z,17.15
2022-10-13T18:43:18.286Z,16.67
2022-10-13T18:46:06.058Z,16.88
2022-10-13T18:48:54.455Z,12.93
2022-10-13T18:51:41.312Z,9.05
2022-10-13T18:54:28.945Z,9.40
2022-10-13T18:57:16.121Z,9.10
2022-10-13T19:00:03.011Z,9.27
2022-10-13T19:02:51.790Z,9.20
2022-10-13T19:05:40.339Z,9.77
2022-10-13T19:08:27.947Z,9.52
2022-10-13T19:11:15.514Z,8.68
2022-10-13T19:14:02.605Z,9.10
2022-10-13T19:16:49.606Z,9.32
2022-10-13T19:19:38.364Z,9.02
2022-10-13T19:22:26.721Z,8.05
2022-10-13T19:25:13.416Z,8.63
2022-10-13T19:28:00.326Z,8.60
2022-10-13T19:30:47.391Z,10.40
2022-10-13T19:33:34.125Z,11.52
2022-10-13T19:36:22.211Z,12.27
2022-10-13T19:39:12.550Z,14.25
2022-10-13T19:41:59.501Z,15.07
2022-10-13T19:44:46.320Z,15.30
2022-10-13T19:47:33.292Z,17.17
2022-10-13T19:50:20.270Z,15.13
2022-10-13T19:53:07.110Z,16.13
2022-10-13T19:55:55.315Z,16.25
2022-10-13T19:58:42.134Z,15.35
2022-10-13T20:01:29.373Z,17.05
2022-10-13T20:04:18.336Z,16.33
2022-10-13T20:07:05.214Z,15.70
2022-10-13T20:09:52.091Z,14.05
2022-10-13T20:12:40.300Z,16.05
2022-10-13T20:15:27.442Z,17.05
2022-10-13T20:18:14.314Z,15.18
2022-10-13T20:21:02.695Z,14.55
2022-10-13T20:23:49.458Z,15.73
2022-10-13T20:26:37.430Z,14.57
2022-10-13T20:29:25.688Z,14.02
2022-10-13T20:32:12.523Z,15.02
2022-10-13T20:34:59.218Z,15.88
2022-10-13T20:37:46.074Z,14.90
2022-10-13T20:40:32.955Z,14.20
2022-10-13T20:43:24.882Z,14.13
2022-10-13T20:46:14.109Z,13.65
2022-10-13T20:49:16.310Z,13.30
2022-10-13T20:52:03.333Z,13.48
2022-10-13T20:54:50.144Z,13.57
2022-10-13T20:57:36.968Z,12.98
2022-10-13T21:00:23.873Z,14.02
2022-10-13T21:03:12.374Z,14.40
2022-10-13T21:05:59.171Z,13.70
2022-10-13T21:08:47.229Z,15.00
2022-10-13T21:11:34.263Z,14.98
2022-10-13T21:14:21.072Z,15.55
2022-10-13T21:17:08.359Z,17.13
2022-10-13T21:19:56.622Z,16.10
2022-10-13T21:22:43.697Z,17.35
2022-10-13T21:25:31.063Z,16.08
2022-10-13T21:28:17.970Z,17.30
2022-10-13T21:31:06.295Z,17.02
2022-10-13T21:33:53.208Z,18.23
2022-10-13T21:36:44.440Z,19.05
2022-10-13T21:39:31.604Z,17.92
2022-10-13T21:42:18.503Z,18.92
2022-10-13T21:45:05.938Z,17.63
2022-10-13T21:47:52.760Z,16.73
2022-10-13T21:50:39.643Z,17.13
2022-10-13T21:53:28.106Z,18.60
2022-10-13T21:56:15.137Z,16.65
2022-10-13T21:59:02.482Z,16.77
2022-10-13T22:01:49.384Z,16.92
2022-10-13T22:04:36.256Z,15.25
2022-10-13T22:07:23.510Z,15.73
2022-10-13T22:10:11.927Z,17.80
2022-10-13T22:12:58.762Z,18.60
2022-10-13T22:15:45.391Z,17.67
2022-10-13T22:18:32.398Z,17.80
2022-10-13T22:21:20.174Z,18.48
2022-10-13T22:24:09.582Z,17.00
2022-10-13T22:26:57.977Z,15.63
2022-10-13T22:29:44.914Z,17.02
2022-10-13T22:32:32.027Z,17.23
2022-10-13T22:35:19.030Z,17.75
2022-10-13T22:38:05.838Z,16.65
2022-10-13T22:40:52.711Z,17.50
2022-10-13T22:43:41.941Z,16.80
2022-10-13T22:46:29.642Z,17.23
2022-10-13T22:49:16.801Z,18.73
2022-10-13T22:52:03.721Z,17.95
2022-10-13T22:54:50.347Z,17.92
2022-10-13T22:57:37.353Z,18.02
2022-10-13T23:00:25.625Z,19.40
2022-10-13T23:03:13.755Z,17.50
2022-10-13T23:06:00.482Z,18.02
2022-10-13T23:08:47.384Z,18.40
2022-10-13T23:11:34.850Z,19.95
2022-10-13T23:14:21.941Z,18.27
2022-10-13T23:17:10.150Z,19.25
2022-10-13T23:19:56.966Z,17.15
2022-10-13T23:22:43.796Z,16.40
2022-10-13T23:25:30.637Z,16.40
2022-10-13T23:28:17.688Z,15.68
2022-10-13T23:31:05.788Z,15.88
2022-10-13T23:33:54.216Z,14.02
2022-10-13T23:36:41.501Z,13.18
2022-10-13T23:39:29.510Z,12.23
2022-10-13T23:42:16.659Z,11.70
2022-10-13T23:45:03.575Z,12.90
2022-10-13T23:47:50.743Z,12.70
2022-10-13T23:50:39.301Z,13.38
2022-10-13T23:53:26.317Z,13.00
2022-10-13T23:56:14.134Z,13.00
2022-10-13T23:59:01.754Z,11.50
